createdAt,value
2023-05-04T00:00:11.324Z,3.58
2023-05-04T00:02:37.911Z,3.60
2023-05-04T00:05:06.303Z,3.77
2023-05-04T00:07:32.933Z,3.70
2023-05-04T00:09:59.544Z,3.80
2023-05-04T00:12:28.515Z,3.80
2023-05-04T00:14:55.257Z,3.80
2023-05-04T00:17:24.114Z,3.70
2023-05-04T00:19:52.951Z,3.70
2023-05-04T00:22:19.451Z,3.70
2023-05-04T00:24:45.967Z,3.50
2023-05-04T00:27:12.944Z,3.78
2023-05-04T00:29:39.394Z,3.75
2023-05-04T00:32:06.964Z,3.60
2023-05-04T00:34:36.443Z,3.50
2023-05-04T00:37:02.949Z,3.67
2023-05-04T00:39:29.665Z,3.60
2023-05-04T00:41:56.368Z,3.55
2023-05-04T00:44:24.117Z,3.90
2023-05-04T00:46:52.468Z,3.72
2023-05-04T00:49:21.511Z,3.73
2023-05-04T00:51:51.040Z,3.75
2023-05-04T00:54:20.472Z,3.88
2023-05-04T00:56:49.245Z,3.65
2023-05-04T00:59:15.741Z,3.80
2023-05-04T01:01:42.272Z,3.60
2023-05-04T01:04:11.195Z,3.90
2023-05-04T01:06:45.373Z,3.73
2023-05-04T01:09:17.110Z,3.80
2023-05-04T01:12:02.227Z,3.78
2023-05-04T01:14:28.590Z,3.65
2023-05-04T01:16:56.495Z,3.70
2023-05-04T01:19:23.057Z,3.80
2023-05-04T01:21:49.495Z,3.60
2023-05-04T01:24:16.336Z,3.60
2023-05-04T01:26:43.871Z,3.70
2023-05-04T01:29:19.794Z,3.60
2023-05-04T01:31:46.513Z,3.70
2023-05-04T01:34:13.575Z,3.70
2023-05-04T01:36:42.398Z,3.50
2023-05-04T01:39:08.865Z,3.90
2023-05-04T01:41:37.743Z,3.70
2023-05-04T01:44:04.436Z,4.07
2023-05-04T01:46:33.313Z,3.78
2023-05-04T01:48:59.706Z,3.73
2023-05-04T01:51:28.618Z,3.88
2023-05-04T01:53:55.016Z,3.80
2023-05-04T01:56:23.809Z,3.63
2023-05-04T01:58:50.264Z,3.80
2023-05-04T02:01:16.799Z,3.80
2023-05-04T02:03:45.845Z,3.80
2023-05-04T02:06:16.733Z,3.77
2023-05-04T02:08:43.149Z,3.70
2023-05-04T02:11:09.712Z,3.83
2023-05-04T02:13:36.666Z,3.60
2023-05-04T02:16:03.132Z,3.67
2023-05-04T02:18:29.648Z,3.60
2023-05-04T02:20:56.016Z,3.88
2023-05-04T02:23:22.518Z,3.65
2023-05-04T02:25:49.039Z,3.60
2023-05-04T02:28:15.916Z,4.00
2023-05-04T02:30:42.525Z,3.80
2023-05-04T02:33:11.445Z,3.80
2023-05-04T02:35:37.815Z,3.90
2023-05-04T02:38:04.307Z,3.78
2023-05-04T02:40:30.749Z,3.72
2023-05-04T02:42:57.207Z,3.70
2023-05-04T02:45:23.779Z,3.90
2023-05-04T02:47:50.394Z,3.72
2023-05-04T02:50:19.738Z,3.90
2023-05-04T02:52:46.164Z,3.63
2023-05-04T02:55:12.624Z,3.78
2023-05-04T02:57:39.059Z,3.80
2023-05-04T03:00:07.161Z,3.80
2023-05-04T03:02:33.792Z,4.10
2023-05-04T03:05:00.360Z,3.83
2023-05-04T03:07:26.900Z,3.75
2023-05-04T03:09:53.434Z,3.95
2023-05-04T03:12:22.295Z,3.78
2023-05-04T03:14:51.106Z,3.83
2023-05-04T03:17:17.505Z,3.75
2023-05-04T03:19:43.995Z,4.00
2023-05-04T03:22:10.550Z,4.03
2023-05-04T03:24:37.920Z,3.80
2023-05-04T03:27:04.837Z,3.83
2023-05-04T03:29:33.688Z,3.65
2023-05-04T03:32:00.328Z,3.90
2023-05-04T03:34:26.821Z,3.65
2023-05-04T03:36:53.754Z,4.10
2023-05-04T03:39:20.211Z,3.70
2023-05-04T03:41:46.772Z,3.80
2023-05-04T03:44:15.560Z,3.90
2023-05-04T03:46:44.295Z,3.85
2023-05-04T03:49:11.057Z,4.07
2023-05-04T03:51:37.504Z,4.20
2023-05-04T03:54:04.020Z,3.90
2023-05-04T03:56:30.553Z,3.90
2023-05-04T03:58:57.019Z,4.13
2023-05-04T04:01:23.461Z,4.30
2023-05-04T04:03:50.070Z,3.92
2023-05-04T04:06:16.590Z,4.00
2023-05-04T04:08:43.092Z,4.28
2023-05-04T04:11:09.609Z,4.00
2023-05-04T04:13:36.065Z,3.80
2023-05-04T04:16:02.735Z,3.90
2023-05-04T04:18:29.354Z,3.90
2023-05-04T04:20:58.166Z,4.07
2023-05-04T04:23:27.591Z,3.88
2023-05-04T04:25:56.687Z,3.80
2023-05-04T04:28:23.170Z,3.80
2023-05-04T04:30:49.590Z,4.00
2023-05-04T04:33:17.093Z,4.03
2023-05-04T04:35:45.888Z,3.80
2023-05-04T04:38:12.326Z,3.90
2023-05-04T04:40:38.873Z,4.00
2023-05-04T04:43:05.737Z,3.93
2023-05-04T04:45:33.803Z,4.03
2023-05-04T04:48:01.120Z,4.00
2023-05-04T04:50:30.000Z,4.00
2023-05-04T04:52:56.475Z,3.70
2023-05-04T04:55:25.972Z,4.00
2023-05-04T04:57:53.045Z,3.90
2023-05-04T05:00:19.627Z,4.03
2023-05-04T05:02:48.474Z,3.92
2023-05-04T05:05:18.086Z,3.80
2023-05-04T05:07:44.571Z,3.85
2023-05-04T05:10:13.096Z,3.92
2023-05-04T05:12:39.609Z,3.67
2023-05-04T05:15:07.527Z,3.75
2023-05-04T05:17:37.771Z,3.97
2023-05-04T05:20:08.301Z,3.63
2023-05-04T05:22:34.830Z,4.05
2023-05-04T05:25:02.109Z,3.88
2023-05-04T05:27:31.960Z,4.00
2023-05-04T05:30:03.378Z,3.70
2023-05-04T05:32:30.114Z,3.70
2023-05-04T05:34:58.897Z,3.70
2023-05-04T05:37:25.353Z,3.80
2023-05-04T05:39:54.158Z,4.00
2023-05-04T05:42:20.597Z,3.90
2023-05-04T05:44:49.384Z,3.72
2023-05-04T05:47:15.849Z,3.85
2023-05-04T05:49:44.158Z,3.70
2023-05-04T05:52:11.938Z,3.85
2023-05-04T05:54:38.484Z,3.70
2023-05-04T05:57:04.914Z,3.92
2023-05-04T05:59:31.885Z,3.90
2023-05-04T06:02:01.323Z,3.90
2023-05-04T06:04:27.815Z,3.80
2023-05-04T06:06:54.168Z,4.00
2023-05-04T06:09:21.202Z,3.80
2023-05-04T06:11:47.621Z,3.78
2023-05-04T06:14:14.093Z,3.67
2023-05-04T06:16:40.768Z,3.70
2023-05-04T06:19:07.381Z,4.00
2023-05-04T06:21:36.201Z,3.90
2023-05-04T06:24:02.715Z,3.80
2023-05-04T06:26:29.322Z,3.73
2023-05-04T06:28:55.732Z,3.87
2023-05-04T06:31:24.317Z,4.00
2023-05-04T06:33:51.094Z,4.00
2023-05-04T06:36:18.844Z,3.70
2023-05-04T06:38:47.789Z,4.00
2023-05-04T06:41:16.609Z,3.83
2023-05-04T06:43:43.715Z,3.80
2023-05-04T06:46:10.293Z,3.83
2023-05-04T06:48:38.758Z,3.70
2023-05-04T06:51:05.179Z,3.72
2023-05-04T06:53:31.698Z,3.67
2023-05-04T06:55:58.205Z,3.77
2023-05-04T06:58:25.932Z,3.80
2023-05-04T07:00:53.121Z,3.60
2023-05-04T07:03:22.146Z,3.70
2023-05-04T07:05:50.785Z,3.70
2023-05-04T07:08:19.732Z,4.00
2023-05-04T07:10:48.592Z,3.80
2023-05-04T07:13:18.258Z,3.57
2023-05-04T07:15:47.042Z,3.70
2023-05-04T07:18:13.575Z,3.70
2023-05-04T07:20:42.255Z,3.75
2023-05-04T07:23:08.726Z,3.70
2023-05-04T07:25:37.866Z,4.20
2023-05-04T07:28:04.475Z,3.60
2023-05-04T07:30:33.265Z,3.75
2023-05-04T07:32:59.798Z,3.30
2023-05-04T07:35:27.113Z,3.70
2023-05-04T07:37:54.183Z,3.50
2023-05-04T07:40:21.571Z,3.60
2023-05-04T07:42:48.226Z,3.80
2023-05-04T07:45:16.935Z,3.63
2023-05-04T07:47:43.324Z,3.63
2023-05-04T07:50:10.246Z,3.58
2023-05-04T07:52:36.709Z,3.50
2023-05-04T07:55:03.191Z,3.47
2023-05-04T07:57:32.464Z,3.50
2023-05-04T08:00:01.878Z,3.70
2023-05-04T08:02:28.546Z,3.58
2023-05-04T08:04:54.985Z,3.88
2023-05-04T08:07:22.726Z,3.70
2023-05-04T08:09:49.224Z,3.70
2023-05-04T08:12:18.163Z,3.60
2023-05-04T08:14:46.618Z,3.53
2023-05-04T08:17:18.083Z,4.00
2023-05-04T08:19:44.645Z,3.80
2023-05-04T08:22:11.739Z,3.72
2023-05-04T08:24:38.175Z,3.78
2023-05-04T08:27:08.672Z,3.75
2023-05-04T08:29:37.365Z,3.63
2023-05-04T08:32:04.279Z,3.63
2023-05-04T08:34:30.804Z,3.45
2023-05-04T08:37:00.562Z,3.80
2023-05-04T08:39:27.100Z,3.65
2023-05-04T08:41:53.499Z,3.67
2023-05-04T08:44:21.479Z,3.58
2023-05-04T08:46:54.202Z,3.57
2023-05-04T08:49:23.243Z,3.33
2023-05-04T08:51:52.718Z,3.75
2023-05-04T08:54:19.272Z,3.60
2023-05-04T08:56:48.011Z,3.50
2023-05-04T08:59:18.756Z,3.70
2023-05-04T09:01:48.087Z,3.57
2023-05-04T09:04:14.963Z,3.58
2023-05-04T09:06:41.465Z,3.47
2023-05-04T09:09:08.458Z,3.57
2023-05-04T09:11:37.260Z,3.63
2023-05-04T09:14:08.591Z,3.55
2023-05-04T09:16:36.329Z,3.55
2023-05-04T09:19:03.589Z,3.42
2023-05-04T09:21:30.899Z,3.70
2023-05-04T09:23:58.134Z,3.65
2023-05-04T09:26:30.927Z,3.53
2023-05-04T09:28:57.608Z,3.87
2023-05-04T09:31:24.247Z,3.72
2023-05-04T09:33:53.297Z,3.45
2023-05-04T09:36:22.327Z,3.60
2023-05-04T09:38:49.068Z,3.63
2023-05-04T09:41:20.542Z,3.45
2023-05-04T09:43:47.041Z,3.47
2023-05-04T09:46:19.176Z,3.80
2023-05-04T09:48:52.481Z,3.67
2023-05-04T09:51:21.159Z,3.80
2023-05-04T09:53:48.542Z,3.63
2023-05-04T09:56:20.411Z,3.80
2023-05-04T09:58:49.192Z,3.72
2023-05-04T10:01:16.001Z,3.60
2023-05-04T10:03:43.437Z,3.70
2023-05-04T10:06:10.916Z,3.60
2023-05-04T10:08:38.027Z,3.67
2023-05-04T10:11:04.495Z,3.33
2023-05-04T10:13:30.984Z,3.50
2023-05-04T10:16:16.430Z,3.78
2023-05-04T10:18:48.985Z,3.50
2023-05-04T10:21:23.705Z,3.92
2023-05-04T10:24:00.982Z,3.63
2023-05-04T10:26:33.455Z,3.70
2023-05-04T10:29:06.289Z,3.63
2023-05-04T10:31:39.446Z,3.72
2023-05-04T10:34:06.087Z,3.70
2023-05-04T10:36:36.627Z,3.80
2023-05-04T10:39:03.076Z,3.38
2023-05-04T10:41:31.935Z,3.80
2023-05-04T10:44:05.131Z,3.92
2023-05-04T10:46:33.928Z,3.80
2023-05-04T10:49:03.453Z,4.20
2023-05-04T10:51:42.405Z,3.80
2023-05-04T10:54:19.531Z,3.92
2023-05-04T10:56:46.014Z,3.70
2023-05-04T10:59:14.888Z,3.87
2023-05-04T11:01:42.403Z,3.90
2023-05-04T11:04:17.951Z,3.90
2023-05-04T11:06:44.460Z,3.78
2023-05-04T11:09:13.697Z,3.80
2023-05-04T11:11:40.155Z,3.80
2023-05-04T11:14:07.176Z,3.80
2023-05-04T11:16:35.751Z,3.72
2023-05-04T11:19:12.604Z,3.78
2023-05-04T11:21:39.094Z,3.83
2023-05-04T11:24:06.138Z,3.80
2023-05-04T11:26:32.748Z,3.88
2023-05-04T11:28:59.312Z,3.97
2023-05-04T11:31:25.854Z,4.10
2023-05-04T11:33:52.889Z,3.80
2023-05-04T11:36:19.338Z,3.78
2023-05-04T11:38:45.830Z,4.00
2023-05-04T11:41:12.600Z,4.10
2023-05-04T11:43:42.206Z,4.20
2023-05-04T11:46:08.757Z,3.88
2023-05-04T11:48:35.412Z,3.90
2023-05-04T11:51:05.553Z,4.07
2023-05-04T11:53:38.934Z,4.20
2023-05-04T11:56:08.940Z,4.45
2023-05-04T11:58:35.444Z,3.88
2023-05-04T12:01:04.475Z,4.07
2023-05-04T12:06:04.262Z,4.15
2023-05-04T12:08:42.353Z,4.33
2023-05-04T12:11:21.753Z,4.20
2023-05-04T12:13:51.788Z,4.40
2023-05-04T12:16:18.885Z,4.38
2023-05-04T12:18:45.627Z,4.35
2023-05-04T12:21:12.077Z,4.50
2023-05-04T12:23:41.925Z,4.05
2023-05-04T12:26:09.125Z,4.20
2023-05-04T12:28:36.085Z,4.75
2023-05-04T12:31:05.412Z,4.60
2023-05-04T12:33:34.885Z,4.55
2023-05-04T12:36:01.631Z,4.60
2023-05-04T12:38:30.970Z,4.95
2023-05-04T12:41:02.401Z,4.50
2023-05-04T12:43:31.275Z,4.70
2023-05-04T12:45:57.739Z,4.65
2023-05-04T12:48:25.889Z,4.57
2023-05-04T12:50:54.772Z,4.50
2023-05-04T12:53:22.409Z,4.40
2023-05-04T12:55:51.244Z,4.57
2023-05-04T12:58:17.651Z,4.40
2023-05-04T13:00:46.629Z,4.50
2023-05-04T13:03:13.389Z,4.80
2023-05-04T13:05:40.275Z,4.57
2023-05-04T13:08:06.849Z,4.65
2023-05-04T13:10:35.847Z,4.90
2023-05-04T13:13:04.850Z,4.75
2023-05-04T13:15:32.524Z,4.97
2023-05-04T13:18:01.439Z,4.90
2023-05-04T13:20:28.027Z,5.35
2023-05-04T13:22:58.200Z,4.97
2023-05-04T13:25:24.953Z,5.17
2023-05-04T13:27:51.669Z,5.53
2023-05-04T13:30:20.533Z,6.10
2023-05-04T13:32:49.233Z,6.45
2023-05-04T13:35:15.971Z,6.15
2023-05-04T13:37:44.839Z,6.30
2023-05-04T13:40:15.293Z,6.70
2023-05-04T13:42:41.881Z,7.30
2023-05-04T13:45:08.852Z,7.10
2023-05-04T13:47:37.201Z,9.50
2023-05-04T13:50:03.912Z,7.88
2023-05-04T13:52:31.848Z,8.68
2023-05-04T13:54:58.432Z,8.00
2023-05-04T13:57:27.032Z,8.83
2023-05-04T14:00:05.695Z,10.93
2023-05-04T14:02:34.155Z,8.32
2023-05-04T14:05:04.175Z,9.45
2023-05-04T14:07:33.216Z,8.93
2023-05-04T14:09:59.963Z,9.67
2023-05-04T14:12:26.539Z,9.60
2023-05-04T14:14:53.020Z,9.65
2023-05-04T14:17:19.400Z,9.65
2023-05-04T14:19:46.045Z,9.93
2023-05-04T14:22:14.774Z,9.55
2023-05-04T14:24:43.650Z,11.15
2023-05-04T14:27:10.112Z,9.90
2023-05-04T14:29:36.528Z,9.25
2023-05-04T14:32:05.498Z,9.77
2023-05-04T14:34:32.762Z,10.27
2023-05-04T14:36:59.267Z,9.88
2023-05-04T14:39:30.620Z,9.30
2023-05-04T14:41:58.097Z,10.32
2023-05-04T14:44:26.131Z,10.50
2023-05-04T14:46:52.659Z,11.30
2023-05-04T14:49:34.965Z,11.40
2023-05-04T14:52:03.953Z,10.18
2023-05-04T14:54:33.040Z,11.13
2023-05-04T14:56:59.988Z,10.90
2023-05-04T14:59:26.809Z,9.60
2023-05-04T15:01:54.878Z,11.50
2023-05-04T15:04:24.066Z,9.82
2023-05-04T15:06:52.957Z,10.20
2023-05-04T15:09:24.401Z,9.38
2023-05-04T15:11:50.849Z,10.70
2023-05-04T15:14:17.393Z,10.05
2023-05-04T15:16:46.360Z,10.15
2023-05-04T15:19:12.913Z,10.03
2023-05-04T15:21:41.726Z,10.77
2023-05-04T15:24:08.195Z,10.27
2023-05-04T15:26:35.956Z,9.02
2023-05-04T15:29:02.462Z,10.68
2023-05-04T15:31:29.169Z,10.13
2023-05-04T15:33:58.313Z,9.63
2023-05-04T15:36:24.808Z,9.73
2023-05-04T15:38:54.440Z,10.32
2023-05-04T15:41:23.810Z,10.00
2023-05-04T15:43:50.311Z,9.83
2023-05-04T15:46:16.909Z,10.00
2023-05-04T15:48:43.582Z,10.82
2023-05-04T15:51:13.217Z,10.43
2023-05-04T15:53:39.729Z,9.55
2023-05-04T15:56:07.990Z,9.82
2023-05-04T15:58:34.592Z,10.80
2023-05-04T16:01:04.937Z,10.10
2023-05-04T16:03:31.563Z,9.90
2023-05-04T16:06:00.914Z,10.10
2023-05-04T16:08:27.552Z,10.40
2023-05-04T16:10:54.299Z,8.93
2023-05-04T16:13:20.946Z,9.93
2023-05-04T16:15:51.242Z,9.95
2023-05-04T16:18:22.714Z,9.50
2023-05-04T16:20:49.170Z,8.98
2023-05-04T16:23:16.049Z,9.35
2023-05-04T16:25:42.983Z,10.40
2023-05-04T16:28:09.549Z,9.70
2023-05-04T16:30:38.798Z,9.02
2023-05-04T16:33:05.448Z,9.00
2023-05-04T16:35:32.737Z,8.88
2023-05-04T16:37:59.350Z,8.63
2023-05-04T16:40:28.372Z,8.60
2023-05-04T16:42:54.859Z,9.48
2023-05-04T16:45:21.451Z,10.18
2023-05-04T16:47:47.870Z,9.27
2023-05-04T16:50:14.620Z,8.82
2023-05-04T16:52:41.210Z,9.93
2023-05-04T16:55:10.705Z,8.30
2023-05-04T16:57:38.268Z,8.30
2023-05-04T17:00:07.422Z,8.30
2023-05-04T17:02:34.319Z,8.88
2023-05-04T17:05:06.449Z,8.43
2023-05-04T17:07:33.655Z,8.63
2023-05-04T17:10:00.237Z,8.57
2023-05-04T17:12:29.009Z,7.90
2023-05-04T17:14:55.710Z,9.13
2023-05-04T17:17:24.529Z,7.47
2023-05-04T17:19:53.313Z,8.20
2023-05-04T17:22:20.303Z,8.38
2023-05-04T17:24:49.558Z,8.97
2023-05-04T17:27:16.400Z,8.25
2023-05-04T17:29:45.271Z,7.83
2023-05-04T17:32:11.801Z,8.27
2023-05-04T17:34:38.269Z,8.52
2023-05-04T17:37:04.772Z,7.95
2023-05-04T17:39:31.694Z,8.43
2023-05-04T17:42:00.845Z,7.95
2023-05-04T17:44:28.835Z,8.02
2023-05-04T17:46:55.403Z,7.95
2023-05-04T17:49:22.022Z,7.88
2023-05-04T17:51:49.374Z,7.95
2023-05-04T17:54:16.408Z,7.55
2023-05-04T17:56:45.315Z,8.07
2023-05-04T17:59:11.950Z,8.45
2023-05-04T18:01:40.456Z,8.13
2023-05-04T18:04:09.920Z,7.32
2023-05-04T18:06:38.818Z,7.82
2023-05-04T18:09:05.316Z,7.47
2023-05-04T18:11:31.869Z,7.80
2023-05-04T18:14:00.630Z,7.70
2023-05-04T18:16:27.276Z,7.45
2023-05-04T18:18:58.386Z,7.43
2023-05-04T18:21:27.783Z,7.40
2023-05-04T18:23:54.201Z,7.72
2023-05-04T18:26:22.668Z,7.65
2023-05-04T18:28:49.420Z,7.20
2023-05-04T18:31:16.098Z,7.03
2023-05-04T18:33:42.657Z,7.13
2023-05-04T18:36:09.300Z,7.78
2023-05-04T18:38:37.137Z,7.22
2023-05-04T18:41:06.989Z,7.03
2023-05-04T18:43:38.329Z,7.43
2023-05-04T18:46:08.261Z,7.13
2023-05-04T18:48:34.853Z,6.97
2023-05-04T18:51:02.112Z,7.00
2023-05-04T18:53:29.169Z,7.50
2023-05-04T18:56:02.042Z,7.30
2023-05-04T18:58:28.527Z,7.63
2023-05-04T19:00:57.098Z,6.73
2023-05-04T19:03:24.023Z,6.83
2023-05-04T19:05:50.719Z,7.65
2023-05-04T19:08:19.529Z,6.40
2023-05-04T19:10:46.364Z,7.00
2023-05-04T19:13:12.896Z,7.50
2023-05-04T19:15:41.816Z,6.87
2023-05-04T19:18:08.457Z,6.63
2023-05-04T19:20:38.251Z,7.00
2023-05-04T19:23:04.837Z,6.15
2023-05-04T19:25:35.134Z,6.75
2023-05-04T19:28:02.886Z,6.88
2023-05-04T19:30:29.384Z,6.22
2023-05-04T19:32:57.378Z,6.40
2023-05-04T19:35:24.262Z,6.33
2023-05-04T19:37:50.774Z,6.32
2023-05-04T19:40:17.263Z,6.30
2023-05-04T19:42:46.248Z,6.35
2023-05-04T19:45:13.718Z,6.30
2023-05-04T19:47:43.057Z,6.30
2023-05-04T19:50:15.821Z,6.20
2023-05-04T19:52:42.473Z,6.60
2023-05-04T19:55:09.261Z,5.97
2023-05-04T19:57:35.726Z,6.72
2023-05-04T20:00:02.393Z,6.28
2023-05-04T20:02:28.981Z,6.10
2023-05-04T20:04:55.991Z,6.23
2023-05-04T20:07:22.667Z,6.45
2023-05-04T20:09:49.072Z,6.65
2023-05-04T20:12:15.564Z,5.72
2023-05-04T20:14:43.436Z,6.10
2023-05-04T20:17:09.998Z,6.05
2023-05-04T20:19:38.457Z,5.78
2023-05-04T20:22:05.052Z,6.07
2023-05-04T20:24:32.336Z,6.35
2023-05-04T20:26:58.797Z,6.00
2023-05-04T20:29:25.291Z,5.90
2023-05-04T20:31:54.265Z,5.78
2023-05-04T20:34:23.295Z,5.78
2023-05-04T20:36:52.116Z,5.63
2023-05-04T20:39:18.587Z,6.20
2023-05-04T20:41:47.752Z,5.70
2023-05-04T20:44:14.661Z,5.90
2023-05-04T20:46:41.238Z,5.90
2023-05-04T20:49:08.964Z,5.40
2023-05-04T20:51:37.919Z,5.60
2023-05-04T20:54:06.401Z,5.80
2023-05-04T20:56:32.830Z,5.90
2023-05-04T20:58:59.342Z,5.77
2023-05-04T21:01:30.779Z,5.60
2023-05-04T21:03:57.381Z,5.40
2023-05-04T21:06:24.613Z,5.70
2023-05-04T21:08:51.062Z,5.45
2023-05-04T21:11:17.548Z,5.57
2023-05-04T21:13:43.991Z,5.60
2023-05-04T21:16:11.385Z,5.53
2023-05-04T21:18:38.172Z,5.55
2023-05-04T21:21:05.010Z,5.63
2023-05-04T21:23:34.421Z,5.13
2023-05-04T21:26:02.515Z,5.72
2023-05-04T21:28:29.188Z,5.47
2023-05-04T21:31:00.688Z,5.22
2023-05-04T21:33:29.402Z,5.30
2023-05-04T21:35:55.942Z,5.85
2023-05-04T21:38:22.639Z,5.25
2023-05-04T21:40:49.106Z,4.55
2023-05-04T21:43:15.521Z,5.53
2023-05-04T21:45:44.328Z,5.10
2023-05-04T21:48:10.938Z,5.30
2023-05-04T21:50:37.524Z,5.20
2023-05-04T21:53:03.978Z,5.43
2023-05-04T21:55:30.460Z,5.70
2023-05-04T21:57:57.272Z,4.95
2023-05-04T22:00:24.053Z,4.97
2023-05-04T22:02:50.824Z,5.27
2023-05-04T22:05:22.161Z,4.90
2023-05-04T22:07:48.777Z,5.17
2023-05-04T22:10:15.460Z,4.90
2023-05-04T22:12:41.852Z,4.93
2023-05-04T22:15:09.889Z,5.10
2023-05-04T22:17:36.316Z,5.20
2023-05-04T22:20:03.354Z,4.80
2023-05-04T22:22:29.760Z,5.13
2023-05-04T22:24:57.188Z,4.80
2023-05-04T22:27:23.640Z,5.20
2023-05-04T22:29:52.964Z,4.80
2023-05-04T22:32:21.713Z,4.90
2023-05-04T22:34:48.211Z,4.75
2023-05-04T22:37:14.700Z,5.05
2023-05-04T22:39:41.247Z,5.20
2023-05-04T22:42:10.129Z,4.88
2023-05-04T22:44:36.525Z,4.88
2023-05-04T22:47:03.936Z,4.82
2023-05-04T22:49:32.800Z,4.55
2023-05-04T22:51:59.623Z,5.10
2023-05-04T22:54:28.454Z,4.77
2023-05-04T22:56:54.931Z,4.72
2023-05-04T22:59:21.377Z,5.15
2023-05-04T23:01:50.343Z,4.55
2023-05-04T23:04:16.868Z,4.65
2023-05-04T23:06:43.902Z,4.57
2023-05-04T23:09:10.429Z,4.60
2023-05-04T23:11:36.925Z,4.60
2023-05-04T23:14:03.539Z,4.70
2023-05-04T23:16:30.114Z,4.60
2023-05-04T23:18:58.981Z,4.20
2023-05-04T23:21:25.486Z,4.50
2023-05-04T23:23:52.074Z,4.45
2023-05-04T23:26:18.590Z,4.40
2023-05-04T23:28:47.379Z,4.43
2023-05-04T23:31:13.961Z,4.45
2023-05-04T23:33:40.427Z,4.80
2023-05-04T23:36:06.997Z,4.25
2023-05-04T23:38:33.541Z,4.50
2023-05-04T23:41:05.885Z,4.35
2023-05-04T23:43:32.400Z,4.50
2023-05-04T23:46:02.219Z,4.32
2023-05-04T23:48:28.934Z,4.10
2023-05-04T23:50:58.541Z,4.37
2023-05-04T23:53:26.068Z,4.20
2023-05-04T23:55:59.690Z,4.23
2023-05-04T23:58:27.869Z,4.43
